createdAt,value
2018-03-07T00:00:04.909Z,30.02
2018-03-07T00:02:32.421Z,31.45
2018-03-07T00:04:59.982Z,30.40
2018-03-07T00:07:27.485Z,30.20
2018-03-07T00:09:54.986Z,29.58
2018-03-07T00:12:22.476Z,31.58
2018-03-07T00:14:50.058Z,30.33
2018-03-07T00:17:18.261Z,29.25
2018-03-07T00:19:45.843Z,29.90
2018-03-07T00:22:15.217Z,31.80
2018-03-07T00:24:42.721Z,29.08
2018-03-07T00:27:10.978Z,32.45
2018-03-07T00:29:38.529Z,30.70
2018-03-07T00:32:06.763Z,28.87
2018-03-07T00:34:34.261Z,31.40
2018-03-07T00:37:01.738Z,30.83
2018-03-07T00:39:30.092Z,28.40
2018-03-07T00:41:57.560Z,31.37
2018-03-07T00:44:25.021Z,31.98
2018-03-07T00:46:53.261Z,31.42
2018-03-07T00:49:20.738Z,31.65
2018-03-07T00:51:48.228Z,31.08
2018-03-07T00:54:15.702Z,33.65
2018-03-07T00:56:43.179Z,30.45
2018-03-07T00:59:10.650Z,30.25
2018-03-07T01:01:38.122Z,31.30
2018-03-07T01:04:05.582Z,29.85
2018-03-07T01:06:33.049Z,31.08
2018-03-07T01:09:00.564Z,29.33
2018-03-07T01:11:28.038Z,30.25
2018-03-07T01:13:55.497Z,30.67
2018-03-07T01:16:23.007Z,29.58
2018-03-07T01:18:50.467Z,30.88
2018-03-07T01:21:17.930Z,34.33
2018-03-07T01:23:45.445Z,32.92
2018-03-07T01:26:12.902Z,31.35
2018-03-07T01:28:41.142Z,32.80
2018-03-07T01:31:08.605Z,32.17
2018-03-07T01:33:36.073Z,31.58
2018-03-07T01:36:03.534Z,32.05
2018-03-07T01:38:31.058Z,31.12
2018-03-07T01:40:58.531Z,31.37
2018-03-07T01:43:26.004Z,31.52
2018-03-07T01:45:53.670Z,29.92
2018-03-07T01:48:21.136Z,32.05
2018-03-07T01:50:48.685Z,32.30
2018-03-07T01:53:16.249Z,32.22
2018-03-07T01:55:43.718Z,32.90
2018-03-07T01:58:11.983Z,31.83
2018-03-07T02:00:39.454Z,33.35
2018-03-07T02:03:06.941Z,31.77
2018-03-07T02:05:34.406Z,34.75
2018-03-07T02:08:01.919Z,32.08
2018-03-07T02:10:30.152Z,31.77
2018-03-07T02:12:57.634Z,31.48
2018-03-07T02:15:25.205Z,32.80
2018-03-07T02:17:52.673Z,31.83
2018-03-07T02:20:20.946Z,31.67
2018-03-07T02:22:49.173Z,31.98
2018-03-07T02:25:16.658Z,34.13
2018-03-07T02:27:44.378Z,37.22
2018-03-07T02:30:11.882Z,33.88
2018-03-07T02:32:39.458Z,33.35
2018-03-07T02:35:07.684Z,36.10
2018-03-07T02:37:35.171Z,33.10
2018-03-07T02:40:02.729Z,33.25
2018-03-07T02:42:30.202Z,33.45
2018-03-07T02:44:57.659Z,35.55
2018-03-07T02:47:25.925Z,35.40
2018-03-07T02:49:53.478Z,33.17
2018-03-07T02:52:20.952Z,35.28
2018-03-07T02:54:48.413Z,33.55
2018-03-07T02:57:16.673Z,36.58
2018-03-07T02:59:44.236Z,35.40
2018-03-07T03:02:11.841Z,35.50
2018-03-07T03:04:39.345Z,38.25
2018-03-07T03:07:06.907Z,34.63
2018-03-07T03:09:34.464Z,39.53
2018-03-07T03:12:01.921Z,36.95
2018-03-07T03:14:29.384Z,35.28
2018-03-07T03:16:57.625Z,36.17
2018-03-07T03:19:25.114Z,37.58
2018-03-07T03:21:52.582Z,35.72
2018-03-07T03:24:20.804Z,35.03
2018-03-07T03:26:48.281Z,35.38
2018-03-07T03:29:15.850Z,36.85
2018-03-07T03:31:43.410Z,35.20
2018-03-07T03:34:10.965Z,33.67
2018-03-07T03:36:38.437Z,32.92
2018-03-07T03:39:05.989Z,34.88
2018-03-07T03:41:33.547Z,33.70
2018-03-07T03:44:01.106Z,34.20
2018-03-07T03:46:28.597Z,33.65
2018-03-07T03:48:56.121Z,34.03
2018-03-07T03:51:23.578Z,33.08
2018-03-07T03:53:51.040Z,35.17
2018-03-07T03:56:18.500Z,33.22
2018-03-07T03:58:46.733Z,33.22
2018-03-07T04:01:14.213Z,32.53
2018-03-07T04:03:41.676Z,32.60
2018-03-07T04:06:09.233Z,35.35
2018-03-07T04:08:36.789Z,33.17
2018-03-07T04:11:04.359Z,33.25
2018-03-07T04:13:31.840Z,34.00
2018-03-07T04:16:00.089Z,35.25
2018-03-07T04:18:27.546Z,34.65
2018-03-07T04:20:55.016Z,32.53
2018-03-07T04:23:23.273Z,34.63
2018-03-07T04:25:50.835Z,33.83
2018-03-07T04:28:18.294Z,32.75
2018-03-07T04:30:45.771Z,33.92
2018-03-07T04:33:14.013Z,34.30
2018-03-07T04:35:41.490Z,33.50
2018-03-07T04:38:09.037Z,32.92
2018-03-07T04:40:36.597Z,33.33
2018-03-07T04:43:04.156Z,31.17
2018-03-07T04:45:31.637Z,32.45
2018-03-07T04:47:59.861Z,35.08
2018-03-07T04:50:27.328Z,33.40
2018-03-07T04:52:54.897Z,32.20
2018-03-07T04:55:22.456Z,32.88
2018-03-07T04:57:50.025Z,35.58
2018-03-07T05:00:17.601Z,33.15
2018-03-07T05:02:45.899Z,33.40
2018-03-07T05:05:13.301Z,35.45
2018-03-07T05:07:40.773Z,35.05
2018-03-07T05:10:08.236Z,33.35
2018-03-07T05:12:35.724Z,33.58
2018-03-07T05:15:03.194Z,35.03
2018-03-07T05:17:30.705Z,35.53
2018-03-07T05:19:58.264Z,33.25
2018-03-07T05:22:25.724Z,34.55
2018-03-07T05:24:53.196Z,33.28
2018-03-07T05:27:21.445Z,34.67
2018-03-07T05:29:49.011Z,33.60
2018-03-07T05:32:16.473Z,33.50
2018-03-07T05:34:44.733Z,35.17
2018-03-07T05:37:12.205Z,34.72
2018-03-07T05:39:40.441Z,34.45
2018-03-07T05:42:07.929Z,33.58
2018-03-07T05:44:36.176Z,33.45
2018-03-07T05:47:03.640Z,34.72
2018-03-07T05:49:31.098Z,36.72
2018-03-07T05:51:58.680Z,35.72
2018-03-07T05:54:26.140Z,35.38
2018-03-07T05:56:53.608Z,33.97
2018-03-07T05:59:21.864Z,31.27
2018-03-07T06:01:49.487Z,35.33
2018-03-07T06:04:16.952Z,33.63
2018-03-07T06:06:44.429Z,34.13
2018-03-07T06:09:11.884Z,31.67
2018-03-07T06:11:39.356Z,32.40
2018-03-07T06:14:06.817Z,32.10
2018-03-07T06:16:34.273Z,33.45
2018-03-07T06:19:01.826Z,32.17
2018-03-07T06:21:29.368Z,34.75
2018-03-07T06:23:58.370Z,34.67
2018-03-07T06:26:25.852Z,35.40
2018-03-07T06:28:53.303Z,33.15
2018-03-07T06:31:21.524Z,33.90
2018-03-07T06:33:49.117Z,33.67
2018-03-07T06:36:16.588Z,33.95
2018-03-07T06:38:46.073Z,32.70
2018-03-07T06:41:14.352Z,33.28
2018-03-07T06:43:41.821Z,35.00
2018-03-07T06:46:09.295Z,35.58
2018-03-07T06:48:37.540Z,35.15
2018-03-07T06:51:05.014Z,34.15
2018-03-07T06:53:33.336Z,31.15
2018-03-07T06:56:00.817Z,33.38
2018-03-07T06:58:28.293Z,33.65
2018-03-07T07:00:57.281Z,32.42
2018-03-07T07:03:24.753Z,34.72
2018-03-07T07:05:52.308Z,32.90
2018-03-07T07:08:19.784Z,34.90
2018-03-07T07:10:48.048Z,34.58
2018-03-07T07:13:16.282Z,33.42
2018-03-07T07:15:43.748Z,33.30
2018-03-07T07:18:11.221Z,31.98
2018-03-07T07:20:38.677Z,35.03
2018-03-07T07:23:06.232Z,33.35
2018-03-07T07:25:33.693Z,32.97
2018-03-07T07:28:01.158Z,33.13
2018-03-07T07:30:28.622Z,33.67
2018-03-07T07:32:56.885Z,38.63
2018-03-07T07:35:24.438Z,35.75
2018-03-07T07:37:51.996Z,32.08
2018-03-07T07:40:19.469Z,32.90
2018-03-07T07:42:46.936Z,30.05
2018-03-07T07:45:15.166Z,32.88
2018-03-07T07:47:42.633Z,34.40
2018-03-07T07:50:10.108Z,32.00
2018-03-07T07:52:37.564Z,32.70
2018-03-07T07:55:05.033Z,32.78
2018-03-07T07:57:33.265Z,32.20
2018-03-07T08:00:00.738Z,31.50
2018-03-07T08:02:28.197Z,33.10
2018-03-07T08:04:55.657Z,33.67
2018-03-07T08:07:23.217Z,32.03
2018-03-07T08:09:50.776Z,31.30
2018-03-07T08:12:18.239Z,29.77
2018-03-07T08:14:45.792Z,32.45
2018-03-07T08:17:13.365Z,30.60
2018-03-07T08:19:42.648Z,29.52
2018-03-07T08:22:10.209Z,28.35
2018-03-07T08:24:37.769Z,32.80
2018-03-07T08:27:05.329Z,28.52
2018-03-07T08:29:33.605Z,26.98
2018-03-07T08:32:01.072Z,27.98
2018-03-07T08:34:29.316Z,32.33
2018-03-07T08:36:56.794Z,32.20
2018-03-07T08:39:24.353Z,29.35
2018-03-07T08:41:51.821Z,29.45
2018-03-07T08:44:20.065Z,30.70
2018-03-07T08:46:47.532Z,29.55
2018-03-07T08:49:16.525Z,31.60
2018-03-07T08:51:43.997Z,29.10
2018-03-07T08:54:12.235Z,30.60
2018-03-07T08:56:39.721Z,29.80
2018-03-07T08:59:07.189Z,25.73
2018-03-07T09:01:35.448Z,32.25
2018-03-07T09:04:02.917Z,28.73
2018-03-07T09:06:30.371Z,28.52
2018-03-07T09:08:58.633Z,27.45
2018-03-07T09:11:26.109Z,26.40
2018-03-07T09:13:54.379Z,26.75
2018-03-07T09:16:21.836Z,30.20
2018-03-07T09:18:49.318Z,26.60
2018-03-07T09:21:16.964Z,25.80
2018-03-07T09:23:45.230Z,27.00
2018-03-07T09:26:12.788Z,24.33
2018-03-07T09:28:40.349Z,25.12
2018-03-07T09:31:09.314Z,25.15
2018-03-07T09:33:36.797Z,26.35
2018-03-07T09:36:04.257Z,24.65
2018-03-07T09:38:31.729Z,22.92
2018-03-07T09:40:59.997Z,24.35
2018-03-07T09:43:28.233Z,25.25
2018-03-07T09:45:55.717Z,26.00
2018-03-07T09:48:23.173Z,24.42
2018-03-07T09:50:50.654Z,20.90
2018-03-07T09:53:18.899Z,24.15
2018-03-07T09:55:46.375Z,24.30
2018-03-07T09:58:14.640Z,23.77
2018-03-07T10:00:42.206Z,22.75
2018-03-07T10:03:10.435Z,21.92
2018-03-07T10:05:37.909Z,22.02
2018-03-07T10:08:05.385Z,23.87
2018-03-07T10:10:32.946Z,22.75
2018-03-07T10:13:00.409Z,23.15
2018-03-07T10:15:28.658Z,21.77
2018-03-07T10:17:56.117Z,20.83
2018-03-07T10:20:23.595Z,21.62
2018-03-07T10:22:51.865Z,21.48
2018-03-07T10:25:19.322Z,20.05
2018-03-07T10:27:46.876Z,21.87
2018-03-07T10:30:14.336Z,21.12
2018-03-07T10:32:41.796Z,21.77
2018-03-07T10:35:10.057Z,20.98
2018-03-07T10:37:37.523Z,20.70
2018-03-07T10:40:05.005Z,20.25
2018-03-07T10:42:33.233Z,21.37
2018-03-07T10:45:00.761Z,20.48
2018-03-07T10:47:28.221Z,21.20
2018-03-07T10:49:55.680Z,21.30
2018-03-07T10:52:23.192Z,22.08
2018-03-07T10:54:51.481Z,20.37
2018-03-07T10:57:19.735Z,19.20
2018-03-07T10:59:47.192Z,19.95
2018-03-07T11:02:14.800Z,20.73
2018-03-07T11:04:42.268Z,19.52
2018-03-07T11:07:09.769Z,19.00
2018-03-07T11:09:37.225Z,20.35
2018-03-07T11:12:04.773Z,20.42
2018-03-07T11:14:32.391Z,21.12
2018-03-07T11:17:00.581Z,20.92
2018-03-07T11:19:28.066Z,19.95
2018-03-07T11:21:57.053Z,21.27
2018-03-07T11:24:25.326Z,21.67
2018-03-07T11:26:52.784Z,19.62
2018-03-07T11:29:20.349Z,19.73
2018-03-07T11:31:47.833Z,19.77
2018-03-07T11:34:15.384Z,19.73
2018-03-07T11:36:43.617Z,19.33
2018-03-07T11:39:11.105Z,18.10
2018-03-07T11:41:38.669Z,21.10
2018-03-07T11:44:06.941Z,19.87
2018-03-07T11:46:34.408Z,18.90
2018-03-07T11:49:02.647Z,19.52
2018-03-07T11:51:30.109Z,20.23
2018-03-07T11:53:57.580Z,20.90
2018-03-07T11:56:25.049Z,18.55
2018-03-07T11:58:53.308Z,20.35
2018-03-07T12:01:20.870Z,20.65
2018-03-07T12:03:48.347Z,20.05
2018-03-07T12:06:16.763Z,20.98
2018-03-07T12:08:44.265Z,19.83
2018-03-07T12:11:11.732Z,20.17
2018-03-07T12:13:39.986Z,21.60
2018-03-07T12:16:08.237Z,20.85
2018-03-07T12:18:35.823Z,20.12
2018-03-07T12:21:03.429Z,20.83
2018-03-07T12:23:30.898Z,21.08
2018-03-07T12:25:58.367Z,22.23
2018-03-07T12:28:25.873Z,21.48
2018-03-07T12:30:54.101Z,24.37
2018-03-07T12:33:21.576Z,22.48
2018-03-07T12:38:32.361Z,26.17
2018-03-07T12:40:59.897Z,26.70
2018-03-07T12:43:27.472Z,25.10
2018-03-07T12:45:54.949Z,27.60
2018-03-07T12:48:22.414Z,30.45
2018-03-07T12:50:49.977Z,28.12
2018-03-07T12:53:17.445Z,29.10
2018-03-07T12:55:45.688Z,30.45
2018-03-07T12:58:13.168Z,29.73
2018-03-07T13:00:41.405Z,28.52
2018-03-07T13:03:08.880Z,31.75
2018-03-07T13:05:36.357Z,31.08
2018-03-07T13:08:04.617Z,31.37
2018-03-07T13:10:32.080Z,31.02
2018-03-07T13:12:59.635Z,32.38
2018-03-07T13:15:27.061Z,30.58
2018-03-07T13:17:54.526Z,31.02
2018-03-07T13:20:22.017Z,32.45
2018-03-07T13:22:50.278Z,30.60
2018-03-07T13:25:17.733Z,31.02
2018-03-07T13:27:45.302Z,29.10
2018-03-07T13:30:12.770Z,29.92
2018-03-07T13:32:41.005Z,29.50
2018-03-07T13:35:08.482Z,29.10
2018-03-07T13:37:35.958Z,28.45
2018-03-07T13:40:04.185Z,31.83
2018-03-07T13:42:31.654Z,29.65
2018-03-07T13:44:59.121Z,32.13
2018-03-07T13:47:26.594Z,30.23
2018-03-07T13:49:54.141Z,28.23
2018-03-07T13:52:23.137Z,32.67
2018-03-07T13:54:51.003Z,31.75
2018-03-07T13:57:18.483Z,31.87
2018-03-07T13:59:46.709Z,30.30
2018-03-07T14:02:16.552Z,30.52
2018-03-07T14:04:44.021Z,33.33
2018-03-07T14:07:12.253Z,33.28
2018-03-07T14:09:39.728Z,28.05
2018-03-07T14:12:07.298Z,30.52
2018-03-07T14:14:34.760Z,29.92
2018-03-07T14:17:03.026Z,31.35
2018-03-07T14:19:30.494Z,30.65
2018-03-07T14:21:58.721Z,28.52
2018-03-07T14:24:26.198Z,27.42
2018-03-07T14:26:53.656Z,26.90
2018-03-07T14:29:21.125Z,28.95
2018-03-07T14:31:48.581Z,29.50
2018-03-07T14:34:16.069Z,29.23
2018-03-07T14:36:44.314Z,32.30
2018-03-07T14:39:11.779Z,29.33
2018-03-07T14:41:39.248Z,29.77
2018-03-07T14:44:07.560Z,31.05
2018-03-07T14:46:35.041Z,29.17
2018-03-07T14:49:02.527Z,32.63
2018-03-07T14:51:30.132Z,26.98
2018-03-07T14:53:57.616Z,28.45
2018-03-07T14:56:25.189Z,27.95
2018-03-07T14:58:52.669Z,26.62
2018-03-07T15:01:20.897Z,30.70
2018-03-07T15:03:49.849Z,31.00
2018-03-07T15:06:17.738Z,29.12
2018-03-07T15:08:45.348Z,29.87
2018-03-07T15:11:12.817Z,29.60
2018-03-07T15:13:41.165Z,31.73
2018-03-07T15:16:08.657Z,33.35
2018-03-07T15:18:36.911Z,28.75
2018-03-07T15:21:04.385Z,28.90
2018-03-07T15:23:32.624Z,29.33
2018-03-07T15:26:00.111Z,29.77
2018-03-07T15:28:27.729Z,28.65
2018-03-07T15:30:55.197Z,32.75
2018-03-07T15:33:22.728Z,29.95
2018-03-07T15:35:50.194Z,30.40
2018-03-07T15:38:17.658Z,28.75
2018-03-07T15:40:45.131Z,30.40
2018-03-07T15:43:12.605Z,29.55
2018-03-07T15:45:40.090Z,30.05
2018-03-07T15:48:07.566Z,30.35
2018-03-07T15:50:35.023Z,29.65
2018-03-07T15:53:02.534Z,30.05
2018-03-07T15:55:30.097Z,27.92
2018-03-07T15:57:57.560Z,29.05
2018-03-07T16:00:25.884Z,29.20
2018-03-07T16:02:53.385Z,28.45
2018-03-07T16:05:20.945Z,29.87
2018-03-07T16:07:48.412Z,27.20
2018-03-07T16:10:16.653Z,29.00
2018-03-07T16:12:44.137Z,27.05
2018-03-07T16:15:11.628Z,25.23
2018-03-07T16:17:39.113Z,28.83
2018-03-07T16:20:06.590Z,27.45
2018-03-07T16:22:34.045Z,27.52
2018-03-07T16:25:01.553Z,26.67
2018-03-07T16:27:29.029Z,28.08
2018-03-07T16:29:56.529Z,28.83
2018-03-07T16:32:24.081Z,30.55
2018-03-07T16:34:51.649Z,27.75
2018-03-07T16:37:19.157Z,28.55
2018-03-07T16:39:46.617Z,28.80
2018-03-07T16:42:14.113Z,30.75
2018-03-07T16:44:41.610Z,29.92
2018-03-07T16:47:09.855Z,27.60
2018-03-07T16:49:37.316Z,30.40
2018-03-07T16:52:04.790Z,29.05
2018-03-07T16:54:33.049Z,30.12
2018-03-07T16:57:00.521Z,30.15
2018-03-07T16:59:28.825Z,31.23
2018-03-07T17:01:56.337Z,30.15
2018-03-07T17:04:23.801Z,32.22
2018-03-07T17:06:52.064Z,30.40
2018-03-07T17:09:19.546Z,31.77
2018-03-07T17:11:47.777Z,33.38
2018-03-07T17:14:15.254Z,31.05
2018-03-07T17:16:42.815Z,33.55
2018-03-07T17:19:10.284Z,32.78
2018-03-07T17:21:38.505Z,33.17
2018-03-07T17:24:06.000Z,33.22
2018-03-07T17:26:34.314Z,34.47
2018-03-07T17:29:01.782Z,34.85
2018-03-07T17:31:29.256Z,32.92
2018-03-07T17:33:56.725Z,35.40
2018-03-07T17:36:24.202Z,34.08
2018-03-07T17:38:51.676Z,35.97
2018-03-07T17:41:19.942Z,33.28
2018-03-07T17:43:48.201Z,34.35
2018-03-07T17:46:15.668Z,34.33
2018-03-07T17:48:43.128Z,36.97
2018-03-07T17:51:11.397Z,32.35
2018-03-07T17:53:38.856Z,32.97
2018-03-07T17:56:07.850Z,35.45
2018-03-07T17:58:35.416Z,32.08
2018-03-07T18:01:02.895Z,33.08
2018-03-07T18:03:31.121Z,31.62
2018-03-07T18:05:58.581Z,32.60
2018-03-07T18:08:26.049Z,32.30
2018-03-07T18:10:53.759Z,32.85
2018-03-07T18:13:21.326Z,32.70
2018-03-07T18:15:48.798Z,32.85
2018-03-07T18:18:16.343Z,31.62
2018-03-07T18:20:43.848Z,34.90
2018-03-07T18:23:11.309Z,32.35
2018-03-07T18:25:38.785Z,33.88
2018-03-07T18:28:07.044Z,29.98
2018-03-07T18:30:35.317Z,32.00
2018-03-07T18:33:02.781Z,30.70
2018-03-07T18:35:31.013Z,31.00
2018-03-07T18:37:58.854Z,31.92
2018-03-07T18:40:26.361Z,30.70
2018-03-07T18:42:53.926Z,32.05
2018-03-07T18:45:21.387Z,30.92
2018-03-07T18:47:48.857Z,30.17
2018-03-07T18:50:17.109Z,32.58
2018-03-07T18:52:44.580Z,31.98
2018-03-07T18:55:12.824Z,31.08
2018-03-07T18:57:40.312Z,30.20
2018-03-07T19:00:07.780Z,30.15
2018-03-07T19:02:36.038Z,32.22
2018-03-07T19:05:04.277Z,33.22
2018-03-07T19:07:31.748Z,33.83
2018-03-07T19:09:59.230Z,31.35
2018-03-07T19:12:26.825Z,33.47
2018-03-07T19:14:55.034Z,31.02
2018-03-07T19:17:22.502Z,29.65
2018-03-07T19:19:49.985Z,34.05
2018-03-07T19:22:18.214Z,34.25
2018-03-07T19:24:45.675Z,33.58
2018-03-07T19:27:13.253Z,32.80
2018-03-07T19:29:40.744Z,33.85
2018-03-07T19:32:08.996Z,33.67
2018-03-07T19:34:36.489Z,34.95
2018-03-07T19:37:03.994Z,37.50
2018-03-07T19:39:31.460Z,35.90
2018-03-07T19:41:59.023Z,36.38
2018-03-07T19:44:26.498Z,37.75
2018-03-07T19:46:54.729Z,35.38
2018-03-07T19:49:22.201Z,33.92
2018-03-07T19:51:49.868Z,34.03
2018-03-07T19:54:17.334Z,35.22
2018-03-07T19:56:44.944Z,37.88
2018-03-07T19:59:12.355Z,34.72
2018-03-07T20:01:39.845Z,37.50
2018-03-07T20:04:07.356Z,36.00
2018-03-07T20:06:34.933Z,35.38
2018-03-07T20:09:03.158Z,35.47
2018-03-07T20:11:30.705Z,35.30
2018-03-07T20:13:58.161Z,35.50
2018-03-07T20:16:25.662Z,33.83
2018-03-07T20:18:53.221Z,35.40
2018-03-07T20:21:20.682Z,36.90
2018-03-07T20:23:48.141Z,37.30
2018-03-07T20:26:15.694Z,36.83
2018-03-07T20:28:43.250Z,37.80
2018-03-07T20:31:10.713Z,33.60
2018-03-07T20:33:38.270Z,37.95
2018-03-07T20:36:05.768Z,37.72
2018-03-07T20:38:33.241Z,35.45
2018-03-07T20:41:00.747Z,37.53
2018-03-07T20:43:28.311Z,36.30
2018-03-07T20:45:55.963Z,35.65
2018-03-07T20:48:23.421Z,36.58
2018-03-07T20:50:50.885Z,37.05
2018-03-07T20:53:18.437Z,36.97
2018-03-07T20:55:45.900Z,37.90
2018-03-07T20:58:13.453Z,36.95
2018-03-07T21:00:41.009Z,38.55
2018-03-07T21:03:08.472Z,41.47
2018-03-07T21:05:35.946Z,38.88
2018-03-07T21:08:04.173Z,35.90
2018-03-07T21:10:31.662Z,38.40
2018-03-07T21:12:59.121Z,36.88
2018-03-07T21:15:27.369Z,36.20
2018-03-07T21:17:54.949Z,41.05
2018-03-07T21:20:22.426Z,38.40
2018-03-07T21:22:50.682Z,37.85
2018-03-07T21:25:18.188Z,40.15
2018-03-07T21:27:45.642Z,42.47
2018-03-07T21:30:13.112Z,40.35
2018-03-07T21:32:40.583Z,41.13
2018-03-07T21:35:08.065Z,40.90
2018-03-07T21:37:35.527Z,39.17
2018-03-07T21:40:03.077Z,39.80
2018-03-07T21:42:30.644Z,40.88
2018-03-07T21:44:58.105Z,40.00
2018-03-07T21:47:26.366Z,40.80
2018-03-07T21:49:53.878Z,42.70
2018-03-07T21:52:21.385Z,42.08
2018-03-07T21:54:48.845Z,42.60
2018-03-07T21:57:16.321Z,41.92
2018-03-07T21:59:44.553Z,42.13
2018-03-07T22:02:12.129Z,43.17
2018-03-07T22:04:39.599Z,44.70
2018-03-07T22:07:07.067Z,41.88
2018-03-07T22:09:35.344Z,39.75
2018-03-07T22:12:03.577Z,40.12
2018-03-07T22:14:31.033Z,44.00
2018-03-07T22:16:58.606Z,45.97
2018-03-07T22:19:26.064Z,43.22
2018-03-07T22:21:53.551Z,41.70
2018-03-07T22:24:21.786Z,45.17
2018-03-07T22:26:49.248Z,42.80
2018-03-07T22:29:16.718Z,44.70
2018-03-07T22:31:44.202Z,44.97
2018-03-07T22:34:12.434Z,45.42
2018-03-07T22:36:39.901Z,44.72
2018-03-07T22:39:08.175Z,44.28
2018-03-07T22:41:35.735Z,44.60
2018-03-07T22:44:03.205Z,47.70
2018-03-07T22:46:31.484Z,45.70
2018-03-07T22:48:59.719Z,44.25
2018-03-07T22:51:27.197Z,48.95
2018-03-07T22:53:54.701Z,44.55
2018-03-07T22:56:22.908Z,47.97
2018-03-07T22:58:50.403Z,43.67
2018-03-07T23:01:18.655Z,46.83
2018-03-07T23:03:46.166Z,44.15
2018-03-07T23:06:13.653Z,44.58
2018-03-07T23:08:41.118Z,46.88
2018-03-07T23:11:08.609Z,46.05
2018-03-07T23:13:36.833Z,44.85
2018-03-07T23:16:04.309Z,46.92
2018-03-07T23:18:33.571Z,45.55
2018-03-07T23:21:01.089Z,44.80
2018-03-07T23:23:28.553Z,47.30
2018-03-07T23:25:56.792Z,45.38
2018-03-07T23:28:24.251Z,45.25
2018-03-07T23:30:51.748Z,45.50
2018-03-07T23:33:19.986Z,44.17
2018-03-07T23:35:47.450Z,44.08
2018-03-07T23:38:14.920Z,47.17
2018-03-07T23:40:42.385Z,44.60
2018-03-07T23:43:10.638Z,47.47
2018-03-07T23:45:38.117Z,47.30
2018-03-07T23:48:06.377Z,46.67
2018-03-07T23:50:33.938Z,46.50
2018-03-07T23:53:01.552Z,46.13
2018-03-07T23:55:29.022Z,45.88
2018-03-07T23:57:56.512Z,43.67
